sensor_id;sensor_type;location;lat;lon;timestamp;pressure;altitude;pressure_sealevel;temperature;humidity
17607;BME280;8922;52.240;20.980;2023-02-10T00:01:43;101646.88;;;0.14;53.69
17607;BME280;8922;52.240;20.980;2023-02-10T00:04:13;101639.25;;;0.14;53.56
17607;BME280;8922;52.240;20.980;2023-02-10T00:06:42;101635.00;;;0.13;53.51
17607;BME280;8922;52.240;20.980;2023-02-10T00:09:12;101632.38;;;0.11;53.71
17607;BME280;8922;52.240;20.980;2023-02-10T00:11:41;101629.75;;;0.10;53.87
17607;BME280;8922;52.240;20.980;2023-02-10T00:14:28;101615.41;;;0.10;53.57
17607;BME280;8922;52.240;20.980;2023-02-10T00:16:57;101609.28;;;0.07;53.54
17607;BME280;8922;52.240;20.980;2023-02-10T00:19:29;101609.28;;;0.07;53.99
17607;BME280;8922;52.240;20.980;2023-02-10T00:21:58;101595.59;;;0.03;53.90
17607;BME280;8922;52.240;20.980;2023-02-10T00:24:27;101604.06;;;0.04;53.73
17607;BME280;8922;52.240;20.980;2023-02-10T00:26:57;101580.38;;;0.03;54.25
17607;BME280;8922;52.240;20.980;2023-02-10T00:29:25;101594.63;;;0.01;53.93
17607;BME280;8922;52.240;20.980;2023-02-10T00:31:56;101598.91;;;0.02;54.20
17607;BME280;8922;52.240;20.980;2023-02-10T00:34:24;101613.88;;;-0.03;54.43
17607;BME280;8922;52.240;20.980;2023-02-10T00:36:56;101605.47;;;-0.02;54.47
17607;BME280;8922;52.240;20.980;2023-02-10T00:39:24;101616.47;;;-0.01;54.14
17607;BME280;8922;52.240;20.980;2023-02-10T00:41:53;101628.38;;;0.00;54.85
17607;BME280;8922;52.240;20.980;2023-02-10T00:44:21;101609.75;;;-0.01;54.36
17607;BME280;8922;52.240;20.980;2023-02-10T00:46:50;101610.66;;;0.00;54.68
17607;BME280;8922;52.240;20.980;2023-02-10T00:49:18;101614.91;;;0.01;54.40
17607;BME280;8922;52.240;20.980;2023-02-10T00:51:49;101598.84;;;0.01;54.54
17607;BME280;8922;52.240;20.980;2023-02-10T00:54:19;101589.47;;;-0.01;54.39
17607;BME280;8922;52.240;20.980;2023-02-10T00:56:47;101602.94;;;-0.02;54.83
17607;BME280;8922;52.240;20.980;2023-02-10T00:59:16;101599.53;;;-0.02;54.69
17607;BME280;8922;52.240;20.980;2023-02-10T01:01:44;101596.94;;;-0.04;54.56
17607;BME280;8922;52.240;20.980;2023-02-10T01:04:13;101597.63;;;-0.06;54.94
17607;BME280;8922;52.240;20.980;2023-02-10T01:06:41;101607.66;;;-0.08;54.82
17607;BME280;8922;52.240;20.980;2023-02-10T01:09:10;101605.91;;;-0.09;54.88
17607;BME280;8922;52.240;20.980;2023-02-10T01:11:40;101609.31;;;-0.08;54.74
17607;BME280;8922;52.240;20.980;2023-02-10T01:14:08;101599.91;;;-0.11;54.98
17607;BME280;8922;52.240;20.980;2023-02-10T01:16:37;101596.38;;;-0.13;55.32
17607;BME280;8922;52.240;20.980;2023-02-10T01:19:05;101591.25;;;-0.14;55.15
17607;BME280;8922;52.240;20.980;2023-02-10T01:21:34;101598.84;;;-0.14;55.00
17607;BME280;8922;52.240;20.980;2023-02-10T01:24:04;101599.63;;;-0.15;55.14
17607;BME280;8922;52.240;20.980;2023-02-10T01:26:34;101583.53;;;-0.16;55.08
17607;BME280;8922;52.240;20.980;2023-02-10T01:29:04;101589.41;;;-0.17;55.01
17607;BME280;8922;52.240;20.980;2023-02-10T01:31:33;101587.66;;;-0.18;55.17
17607;BME280;8922;52.240;20.980;2023-02-10T01:34:01;101588.44;;;-0.19;55.44
17607;BME280;8922;52.240;20.980;2023-02-10T01:36:30;101585.91;;;-0.19;55.04
17607;BME280;8922;52.240;20.980;2023-02-10T01:38:58;101587.50;;;-0.21;55.14
17607;BME280;8922;52.240;20.980;2023-02-10T01:41:28;101598.25;;;-0.25;55.19
17607;BME280;8922;52.240;20.980;2023-02-10T01:44:01;101593.19;;;-0.25;55.45
17607;BME280;8922;52.240;20.980;2023-02-10T01:46:34;101593.88;;;-0.28;55.56
17607;BME280;8922;52.240;20.980;2023-02-10T01:49:06;101585.41;;;-0.28;55.60
17607;BME280;8922;52.240;20.980;2023-02-10T01:51:41;101592.81;;;-0.31;55.56
17607;BME280;8922;52.240;20.980;2023-02-10T01:54:14;101579.97;;;-0.34;55.60
17607;BME280;8922;52.240;20.980;2023-02-10T01:56:44;101583.22;;;-0.37;55.79
17607;BME280;8922;52.240;20.980;2023-02-10T01:59:12;101576.31;;;-0.39;56.16
17607;BME280;8922;52.240;20.980;2023-02-10T02:01:43;101591.50;;;-0.39;55.85
17607;BME280;8922;52.240;20.980;2023-02-10T02:04:11;101587.13;;;-0.42;56.59
17607;BME280;8922;52.240;20.980;2023-02-10T02:06:40;101574.22;;;-0.46;56.38
17607;BME280;8922;52.240;20.980;2023-02-10T02:09:09;101581.63;;;-0.50;56.13
17607;BME280;8922;52.240;20.980;2023-02-10T02:11:48;101572.31;;;-0.51;56.61
17607;BME280;8922;52.240;20.980;2023-02-10T02:14:31;101565.47;;;-0.52;56.61
17607;BME280;8922;52.240;20.980;2023-02-10T02:17:14;101557.72;;;-0.55;57.19
17607;BME280;8922;52.240;20.980;2023-02-10T02:20:20;101556.75;;;-0.57;56.69
17607;BME280;8922;52.240;20.980;2023-02-10T02:23:53;101555.88;;;-0.57;56.70
17607;BME280;8922;52.240;20.980;2023-02-10T02:27:12;101558.22;;;-0.60;57.14
17607;BME280;8922;52.240;20.980;2023-02-10T02:32:57;101577.53;;;-0.62;57.22
17607;BME280;8922;52.240;20.980;2023-02-10T02:35:34;101575.69;;;-0.65;57.21
17607;BME280;8922;52.240;20.980;2023-02-10T02:38:06;101581.63;;;-0.64;57.28
17607;BME280;8922;52.240;20.980;2023-02-10T02:40:35;101582.41;;;-0.65;57.28
17607;BME280;8922;52.240;20.980;2023-02-10T02:43:04;101577.25;;;-0.67;57.33
17607;BME280;8922;52.240;20.980;2023-02-10T02:45:40;101571.22;;;-0.69;57.52
17607;BME280;8922;52.240;20.980;2023-02-10T02:48:36;101572.19;;;-0.67;57.62
17607;BME280;8922;52.240;20.980;2023-02-10T02:51:17;101577.16;;;-0.68;57.68
17607;BME280;8922;52.240;20.980;2023-02-10T02:53:56;101567.91;;;-0.68;57.71
17607;BME280;8922;52.240;20.980;2023-02-10T02:56:37;101559.38;;;-0.70;57.72
17607;BME280;8922;52.240;20.980;2023-02-10T02:59:16;101561.91;;;-0.70;57.76
17607;BME280;8922;52.240;20.980;2023-02-10T03:01:51;101562.47;;;-0.74;57.68
17607;BME280;8922;52.240;20.980;2023-02-10T03:04:27;101570.25;;;-0.71;57.96
17607;BME280;8922;52.240;20.980;2023-02-10T03:06:56;101571.13;;;-0.70;57.71
17607;BME280;8922;52.240;20.980;2023-02-10T03:09:24;101572.09;;;-0.68;58.08
17607;BME280;8922;52.240;20.980;2023-02-10T03:11:53;101570.69;;;-0.63;57.92
17607;BME280;8922;52.240;20.980;2023-02-10T03:14:21;101568.09;;;-0.65;57.69
17607;BME280;8922;52.240;20.980;2023-02-10T03:16:50;101570.19;;;-0.58;57.46
17607;BME280;8922;52.240;20.980;2023-02-10T03:19:19;101560.31;;;-0.53;57.43
17607;BME280;8922;52.240;20.980;2023-02-10T03:21:49;101554.47;;;-0.52;57.35
17607;BME280;8922;52.240;20.980;2023-02-10T03:24:17;101551.19;;;-0.51;57.85
17607;BME280;8922;52.240;20.980;2023-02-10T03:26:45;101552.81;;;-0.52;57.69
17607;BME280;8922;52.240;20.980;2023-02-10T03:29:15;101549.41;;;-0.52;57.49
17607;BME280;8922;52.240;20.980;2023-02-10T03:31:44;101558.59;;;-0.54;57.42
17607;BME280;8922;52.240;20.980;2023-02-10T03:34:13;101566.97;;;-0.55;57.46
17607;BME280;8922;52.240;20.980;2023-02-10T03:36:41;101573.66;;;-0.56;57.17
17607;BME280;8922;52.240;20.980;2023-02-10T03:39:12;101564.25;;;-0.58;57.46
17607;BME280;8922;52.240;20.980;2023-02-10T03:41:41;101558.91;;;-0.63;57.42
17607;BME280;8922;52.240;20.980;2023-02-10T03:44:09;101552.81;;;-0.66;57.77
17607;BME280;8922;52.240;20.980;2023-02-10T03:46:37;101542.41;;;-0.71;57.64
17607;BME280;8922;52.240;20.980;2023-02-10T03:49:06;101551.66;;;-0.71;57.93
17607;BME280;8922;52.240;20.980;2023-02-10T03:51:34;101537.16;;;-0.74;57.59
17607;BME280;8922;52.240;20.980;2023-02-10T03:54:03;101550.63;;;-0.75;58.29
17607;BME280;8922;52.240;20.980;2023-02-10T03:56:32;101551.31;;;-0.78;57.61
17607;BME280;8922;52.240;20.980;2023-02-10T03:59:01;101558.63;;;-0.82;58.11
17607;BME280;8922;52.240;20.980;2023-02-10T04:01:30;101571.22;;;-0.84;58.26
17607;BME280;8922;52.240;20.980;2023-02-10T04:04:00;101575.41;;;-0.84;58.36
17607;BME280;8922;52.240;20.980;2023-02-10T04:06:29;101562.63;;;-0.86;57.88
17607;BME280;8922;52.240;20.980;2023-02-10T04:08:57;101565.97;;;-0.87;58.06
17607;BME280;8922;52.240;20.980;2023-02-10T04:11:25;101559.16;;;-0.88;58.50
17607;BME280;8922;52.240;20.980;2023-02-10T04:13:55;101563.34;;;-0.88;58.26
17607;BME280;8922;52.240;20.980;2023-02-10T04:16:24;101563.06;;;-0.93;58.89
17607;BME280;8922;52.240;20.980;2023-02-10T04:18:54;101568.03;;;-0.94;58.69
17607;BME280;8922;52.240;20.980;2023-02-10T04:21:23;101562.97;;;-0.94;58.88
17607;BME280;8922;52.240;20.980;2023-02-10T04:23:52;101568.53;;;-1.00;58.53
17607;BME280;8922;52.240;20.980;2023-02-10T04:26:21;101574.38;;;-1.01;59.11
17607;BME280;8922;52.240;20.980;2023-02-10T04:28:49;101564.94;;;-1.04;58.53
17607;BME280;8922;52.240;20.980;2023-02-10T04:31:19;101576.72;;;-1.04;59.10
17607;BME280;8922;52.240;20.980;2023-02-10T04:33:47;101569.06;;;-1.06;58.63
17607;BME280;8922;52.240;20.980;2023-02-10T04:36:16;101580.91;;;-1.05;59.21
17607;BME280;8922;52.240;20.980;2023-02-10T04:38:44;101572.38;;;-1.07;59.16
17607;BME280;8922;52.240;20.980;2023-02-10T04:41:13;101573.94;;;-1.09;58.80
17607;BME280;8922;52.240;20.980;2023-02-10T04:43:42;101576.38;;;-1.10;59.30
17607;BME280;8922;52.240;20.980;2023-02-10T04:46:10;101574.53;;;-1.13;59.82
17607;BME280;8922;52.240;20.980;2023-02-10T04:48:40;101564.22;;;-1.16;59.30
17607;BME280;8922;52.240;20.980;2023-02-10T04:51:10;101565.97;;;-1.15;59.27
17607;BME280;8922;52.240;20.980;2023-02-10T04:53:39;101567.75;;;-1.14;59.84
17607;BME280;8922;52.240;20.980;2023-02-10T04:56:11;101561.22;;;-1.10;59.86
17607;BME280;8922;52.240;20.980;2023-02-10T04:58:40;101557.09;;;-1.08;59.88
17607;BME280;8922;52.240;20.980;2023-02-10T05:01:09;101565.75;;;-1.05;59.31
17607;BME280;8922;52.240;20.980;2023-02-10T05:03:41;101564.19;;;-1.03;59.40
17607;BME280;8922;52.240;20.980;2023-02-10T05:06:11;101556.75;;;-1.00;59.38
17607;BME280;8922;52.240;20.980;2023-02-10T05:08:40;101551.88;;;-0.97;59.74
17607;BME280;8922;52.240;20.980;2023-02-10T05:11:10;101554.59;;;-0.93;59.40
17607;BME280;8922;52.240;20.980;2023-02-10T05:13:38;101544.66;;;-0.90;59.17
17607;BME280;8922;52.240;20.980;2023-02-10T05:16:10;101552.53;;;-0.86;58.95
17607;BME280;8922;52.240;20.980;2023-02-10T05:18:40;101553.75;;;-0.79;59.38
17607;BME280;8922;52.240;20.980;2023-02-10T05:21:11;101550.44;;;-0.78;58.72
17607;BME280;8922;52.240;20.980;2023-02-10T05:23:41;101539.56;;;-0.77;58.92
17607;BME280;8922;52.240;20.980;2023-02-10T05:26:09;101540.50;;;-0.75;59.03
17607;BME280;8922;52.240;20.980;2023-02-10T05:28:38;101533.88;;;-0.73;58.80
17607;BME280;8922;52.240;20.980;2023-02-10T05:31:06;101530.47;;;-0.74;58.88
17607;BME280;8922;52.240;20.980;2023-02-10T05:33:35;101539.19;;;-0.68;58.58
17607;BME280;8922;52.240;20.980;2023-02-10T05:36:06;101552.03;;;-0.65;58.55
17607;BME280;8922;52.240;20.980;2023-02-10T05:38:35;101560.50;;;-0.65;58.88
17607;BME280;8922;52.240;20.980;2023-02-10T05:41:04;101553.84;;;-0.63;58.79
17607;BME280;8922;52.240;20.980;2023-02-10T05:43:32;101559.03;;;-0.61;58.71
17607;BME280;8922;52.240;20.980;2023-02-10T05:46:00;101559.88;;;-0.61;58.73
17607;BME280;8922;52.240;20.980;2023-02-10T05:48:29;101556.56;;;-0.60;58.67
17607;BME280;8922;52.240;20.980;2023-02-10T05:50:57;101563.41;;;-0.59;58.95
17607;BME280;8922;52.240;20.980;2023-02-10T05:53:27;101564.34;;;-0.57;59.09
17607;BME280;8922;52.240;20.980;2023-02-10T05:55:55;101571.13;;;-0.56;58.68
17607;BME280;8922;52.240;20.980;2023-02-10T05:58:25;101566.06;;;-0.56;59.10
17607;BME280;8922;52.240;20.980;2023-02-10T06:00:55;101565.31;;;-0.55;59.25
17607;BME280;8922;52.240;20.980;2023-02-10T06:03:23;101577.19;;;-0.54;58.86
17607;BME280;8922;52.240;20.980;2023-02-10T06:05:52;101568.78;;;-0.53;59.67
17607;BME280;8922;52.240;20.980;2023-02-10T06:08:20;101568.97;;;-0.50;59.40
17607;BME280;8922;52.240;20.980;2023-02-10T06:10:50;101572.13;;;-0.54;59.42
17607;BME280;8922;52.240;20.980;2023-02-10T06:13:19;101572.91;;;-0.55;59.83
17607;BME280;8922;52.240;20.980;2023-02-10T06:15:47;101574.47;;;-0.57;59.85
17607;BME280;8922;52.240;20.980;2023-02-10T06:18:16;101575.16;;;-0.59;59.96
17607;BME280;8922;52.240;20.980;2023-02-10T06:20:45;101563.41;;;-0.59;60.08
17607;BME280;8922;52.240;20.980;2023-02-10T06:23:14;101572.72;;;-0.58;60.14
17607;BME280;8922;52.240;20.980;2023-02-10T06:25:43;101573.66;;;-0.56;60.55
17607;BME280;8922;52.240;20.980;2023-02-10T06:28:12;101572.97;;;-0.53;60.69
17607;BME280;8922;52.240;20.980;2023-02-10T06:30:42;101583.19;;;-0.52;60.56
17607;BME280;8922;52.240;20.980;2023-02-10T06:33:10;101568.72;;;-0.54;61.07
17607;BME280;8922;52.240;20.980;2023-02-10T06:35:38;101571.69;;;-0.46;60.76
17607;BME280;8922;52.240;20.980;2023-02-10T06:38:07;101570.88;;;-0.45;60.97
17607;BME280;8922;52.240;20.980;2023-02-10T06:40:36;101575.25;;;-0.43;61.13
17607;BME280;8922;52.240;20.980;2023-02-10T06:43:04;101572.06;;;-0.40;61.25
17607;BME280;8922;52.240;20.980;2023-02-10T06:45:34;101579.78;;;-0.37;61.06
17607;BME280;8922;52.240;20.980;2023-02-10T06:48:03;101579.09;;;-0.35;61.12
17607;BME280;8922;52.240;20.980;2023-02-10T06:50:32;101585.22;;;-0.31;61.27
17607;BME280;8922;52.240;20.980;2023-02-10T06:53:00;101588.19;;;-0.23;61.27
17607;BME280;8922;52.240;20.980;2023-02-10T06:55:29;101588.53;;;-0.17;61.13
17607;BME280;8922;52.240;20.980;2023-02-10T06:57:58;101586.25;;;-0.13;61.00
17607;BME280;8922;52.240;20.980;2023-02-10T07:00:28;101585.56;;;-0.10;60.73
17607;BME280;8922;52.240;20.980;2023-02-10T07:02:58;101585.03;;;-0.05;61.02
17607;BME280;8922;52.240;20.980;2023-02-10T07:05:26;101583.97;;;0.07;60.63
17607;BME280;8922;52.240;20.980;2023-02-10T07:07:55;101595.50;;;0.16;60.46
17607;BME280;8922;52.240;20.980;2023-02-10T07:10:26;101598.28;;;0.21;60.33
17607;BME280;8922;52.240;20.980;2023-02-10T07:12:55;101591.63;;;0.23;60.36
17607;BME280;8922;52.240;20.980;2023-02-10T07:15:23;101591.88;;;0.28;59.84
17607;BME280;8922;52.240;20.980;2023-02-10T07:17:52;101585.31;;;0.31;59.97
17607;BME280;8922;52.240;20.980;2023-02-10T07:20:23;101586.19;;;0.32;60.29
17607;BME280;8922;52.240;20.980;2023-02-10T07:22:52;101597.53;;;0.38;59.97
17607;BME280;8922;52.240;20.980;2023-02-10T07:25:21;101597.88;;;0.44;60.03
17607;BME280;8922;52.240;20.980;2023-02-10T07:27:50;101596.81;;;0.56;60.23
17607;BME280;8922;52.240;20.980;2023-02-10T07:30:19;101591.97;;;0.60;59.94
17607;BME280;8922;52.240;20.980;2023-02-10T07:32:48;101600.69;;;0.65;59.75
17607;BME280;8922;52.240;20.980;2023-02-10T07:35:17;101603.72;;;0.75;59.81
17607;BME280;8922;52.240;20.980;2023-02-10T07:37:48;101606.09;;;0.88;59.68
17607;BME280;8922;52.240;20.980;2023-02-10T07:40:17;101613.81;;;1.06;59.49
17607;BME280;8922;52.240;20.980;2023-02-10T07:42:45;101609.38;;;1.18;58.56
17607;BME280;8922;52.240;20.980;2023-02-10T07:45:15;101609.03;;;1.28;58.71
17607;BME280;8922;52.240;20.980;2023-02-10T07:47:43;101601.97;;;1.39;58.43
17607;BME280;8922;52.240;20.980;2023-02-10T07:50:12;101603.63;;;1.55;58.15
17607;BME280;8922;52.240;20.980;2023-02-10T07:52:40;101601.59;;;1.65;58.51
17607;BME280;8922;52.240;20.980;2023-02-10T07:55:12;101598.50;;;1.71;57.46
17607;BME280;8922;52.240;20.980;2023-02-10T07:57:40;101603.09;;;1.78;57.83
17607;BME280;8922;52.240;20.980;2023-02-10T08:00:11;101612.75;;;1.85;57.75
17607;BME280;8922;52.240;20.980;2023-02-10T08:02:40;101603.88;;;1.95;57.43
17607;BME280;8922;52.240;20.980;2023-02-10T08:05:09;101602.53;;;2.02;57.53
17607;BME280;8922;52.240;20.980;2023-02-10T08:07:38;101587.25;;;2.02;56.49
17607;BME280;8922;52.240;20.980;2023-02-10T08:10:07;101585.69;;;2.04;56.81
17607;BME280;8922;52.240;20.980;2023-02-10T08:12:37;101579.06;;;2.07;56.83
17607;BME280;8922;52.240;20.980;2023-02-10T08:15:07;101581.78;;;2.10;57.48
17607;BME280;8922;52.240;20.980;2023-02-10T08:17:37;101590.84;;;2.23;57.12
17607;BME280;8922;52.240;20.980;2023-02-10T08:20:07;101580.81;;;2.26;57.62
17607;BME280;8922;52.240;20.980;2023-02-10T08:22:36;101590.16;;;2.27;57.44
17607;BME280;8922;52.240;20.980;2023-02-10T08:25:05;101596.56;;;2.19;57.22
17607;BME280;8922;52.240;20.980;2023-02-10T08:27:35;101574.72;;;2.05;57.33
17607;BME280;8922;52.240;20.980;2023-02-10T08:30:05;101585.22;;;1.94;57.75
17607;BME280;8922;52.240;20.980;2023-02-10T08:32:33;101594.66;;;1.79;58.00
17607;BME280;8922;52.240;20.980;2023-02-10T08:35:02;101597.41;;;1.66;58.75
17607;BME280;8922;52.240;20.980;2023-02-10T08:37:30;101605.38;;;1.56;59.68
17607;BME280;8922;52.240;20.980;2023-02-10T08:39:59;101597.44;;;1.50;59.85
17607;BME280;8922;52.240;20.980;2023-02-10T08:42:27;101584.94;;;1.36;60.20
17607;BME280;8922;52.240;20.980;2023-02-10T08:44:57;101594.81;;;1.32;60.88
17607;BME280;8922;52.240;20.980;2023-02-10T08:47:26;101591.19;;;1.27;61.48
17607;BME280;8922;52.240;20.980;2023-02-10T08:49:54;101599.47;;;1.23;61.06
17607;BME280;8922;52.240;20.980;2023-02-10T08:52:23;101611.91;;;1.18;61.76
17607;BME280;8922;52.240;20.980;2023-02-10T08:54:51;101600.56;;;1.11;62.08
17607;BME280;8922;52.240;20.980;2023-02-10T08:57:20;101608.72;;;1.06;62.16
17607;BME280;8922;52.240;20.980;2023-02-10T08:59:48;101609.47;;;1.03;62.81
17607;BME280;8922;52.240;20.980;2023-02-10T09:02:18;101627.38;;;1.06;62.99
17607;BME280;8922;52.240;20.980;2023-02-10T09:04:46;101628.22;;;1.07;62.98
17607;BME280;8922;52.240;20.980;2023-02-10T09:07:30;101630.63;;;1.04;63.03
17607;BME280;8922;52.240;20.980;2023-02-10T09:09:59;101637.44;;;1.05;63.42
17607;BME280;8922;52.240;20.980;2023-02-10T09:12:27;101641.56;;;1.03;63.26
17607;BME280;8922;52.240;20.980;2023-02-10T09:14:55;101640.00;;;1.05;63.51
17607;BME280;8922;52.240;20.980;2023-02-10T09:17:25;101653.59;;;1.07;63.91
17607;BME280;8922;52.240;20.980;2023-02-10T09:19:54;101647.84;;;1.09;64.12
17607;BME280;8922;52.240;20.980;2023-02-10T09:22:22;101643.78;;;1.13;63.74
17607;BME280;8922;52.240;20.980;2023-02-10T09:24:50;101649.09;;;1.17;63.86
17607;BME280;8922;52.240;20.980;2023-02-10T09:27:20;101652.78;;;1.23;63.62
17607;BME280;8922;52.240;20.980;2023-02-10T09:29:49;101644.41;;;1.25;63.54
17607;BME280;8922;52.240;20.980;2023-02-10T09:32:17;101643.56;;;1.25;63.78
17607;BME280;8922;52.240;20.980;2023-02-10T09:34:47;101659.03;;;1.29;63.60
17607;BME280;8922;52.240;20.980;2023-02-10T09:37:16;101663.50;;;1.33;63.58
17607;BME280;8922;52.240;20.980;2023-02-10T09:39:44;101665.56;;;1.40;63.70
17607;BME280;8922;52.240;20.980;2023-02-10T09:42:21;101667.63;;;1.48;63.52
17607;BME280;8922;52.240;20.980;2023-02-10T09:45:01;101670.28;;;1.51;63.33
17607;BME280;8922;52.240;20.980;2023-02-10T09:47:41;101671.94;;;1.50;63.25
17607;BME280;8922;52.240;20.980;2023-02-10T09:50:39;101682.13;;;1.50;63.26
17607;BME280;8922;52.240;20.980;2023-02-10T09:53:13;101673.63;;;1.50;63.41
17607;BME280;8922;52.240;20.980;2023-02-10T09:55:48;101672.53;;;1.44;63.12
17607;BME280;8922;52.240;20.980;2023-02-10T09:58:24;101654.44;;;1.38;63.38
17607;BME280;8922;52.240;20.980;2023-02-10T10:00:58;101650.16;;;1.37;63.77
17607;BME280;8922;52.240;20.980;2023-02-10T10:03:42;101648.41;;;1.36;64.16
17607;BME280;8922;52.240;20.980;2023-02-10T10:06:21;101651.94;;;1.40;63.82
17607;BME280;8922;52.240;20.980;2023-02-10T10:09:01;101646.25;;;1.44;64.29
17607;BME280;8922;52.240;20.980;2023-02-10T10:11:38;101642.22;;;1.48;64.49
17607;BME280;8922;52.240;20.980;2023-02-10T10:14:18;101647.91;;;1.60;64.18
17607;BME280;8922;52.240;20.980;2023-02-10T10:17:23;101643.16;;;1.66;63.82
17607;BME280;8922;52.240;20.980;2023-02-10T10:20:26;101644.38;;;1.74;63.39
17607;BME280;8922;52.240;20.980;2023-02-10T10:23:15;101639.38;;;1.76;63.54
17607;BME280;8922;52.240;20.980;2023-02-10T10:25:58;101632.56;;;1.75;63.10
17607;BME280;8922;52.240;20.980;2023-02-10T10:28:48;101640.13;;;1.73;63.83
17607;BME280;8922;52.240;20.980;2023-02-10T10:31:20;101640.19;;;1.75;64.18
17607;BME280;8922;52.240;20.980;2023-02-10T10:33:54;101653.81;;;1.77;63.64
17607;BME280;8922;52.240;20.980;2023-02-10T10:36:31;101651.28;;;1.77;64.14
17607;BME280;8922;52.240;20.980;2023-02-10T10:39:11;101644.38;;;1.74;63.66
17607;BME280;8922;52.240;20.980;2023-02-10T10:41:42;101659.69;;;1.76;64.39
17607;BME280;8922;52.240;20.980;2023-02-10T10:44:15;101656.22;;;1.74;64.50
17607;BME280;8922;52.240;20.980;2023-02-10T10:46:47;101645.19;;;1.73;64.56
17607;BME280;8922;52.240;20.980;2023-02-10T10:49:17;101645.19;;;1.73;64.86
17607;BME280;8922;52.240;20.980;2023-02-10T10:51:45;101647.56;;;1.70;65.02
17607;BME280;8922;52.240;20.980;2023-02-10T10:54:19;101653.38;;;1.67;65.11
17607;BME280;8922;52.240;20.980;2023-02-10T10:56:51;101663.53;;;1.67;65.12
17607;BME280;8922;52.240;20.980;2023-02-10T10:59:29;101665.09;;;1.65;64.79
17607;BME280;8922;52.240;20.980;2023-02-10T11:01:59;101671.88;;;1.65;65.44
17607;BME280;8922;52.240;20.980;2023-02-10T11:04:38;101659.91;;;1.62;65.51
17607;BME280;8922;52.240;20.980;2023-02-10T11:07:11;101656.47;;;1.62;65.81
17607;BME280;8922;52.240;20.980;2023-02-10T11:09:48;101651.38;;;1.62;66.04
17607;BME280;8922;52.240;20.980;2023-02-10T11:12:21;101645.44;;;1.61;66.24
17607;BME280;8922;52.240;20.980;2023-02-10T11:14:52;101653.22;;;1.64;66.36
17607;BME280;8922;52.240;20.980;2023-02-10T11:17:27;101661.00;;;1.67;66.55
17607;BME280;8922;52.240;20.980;2023-02-10T11:20:00;101663.59;;;1.69;65.96
17607;BME280;8922;52.240;20.980;2023-02-10T11:22:29;101658.50;;;1.69;66.80
17607;BME280;8922;52.240;20.980;2023-02-10T11:25:02;101662.09;;;1.73;66.52
17607;BME280;8922;52.240;20.980;2023-02-10T11:27:33;101665.66;;;1.76;66.71
17607;BME280;8922;52.240;20.980;2023-02-10T11:30:01;101675.25;;;1.82;67.08
17607;BME280;8922;52.240;20.980;2023-02-10T11:32:33;101667.53;;;1.80;66.32
17607;BME280;8922;52.240;20.980;2023-02-10T11:35:04;101666.84;;;1.83;67.48
17607;BME280;8922;52.240;20.980;2023-02-10T11:37:38;101672.06;;;1.86;66.68
17607;BME280;8922;52.240;20.980;2023-02-10T11:40:20;101668.88;;;1.90;67.28
17607;BME280;8922;52.240;20.980;2023-02-10T11:42:51;101670.88;;;1.96;66.78
17607;BME280;8922;52.240;20.980;2023-02-10T11:45:25;101667.84;;;2.03;67.07
17607;BME280;8922;52.240;20.980;2023-02-10T11:48:10;101680.44;;;2.17;66.87
17607;BME280;8922;52.240;20.980;2023-02-10T11:50:41;101679.34;;;2.30;65.90
17607;BME280;8922;52.240;20.980;2023-02-10T11:53:21;101695.97;;;2.41;66.86
17607;BME280;8922;52.240;20.980;2023-02-10T11:55:57;101691.97;;;2.47;66.19
17607;BME280;8922;52.240;20.980;2023-02-10T12:01:48;101690.38;;;2.49;66.05
17607;BME280;8922;52.240;20.980;2023-02-10T12:04:52;101705.16;;;2.56;65.34
17607;BME280;8922;52.240;20.980;2023-02-10T12:07:37;101703.41;;;2.55;65.15
17607;BME280;8922;52.240;20.980;2023-02-10T12:10:18;101696.34;;;2.49;65.74
17607;BME280;8922;52.240;20.980;2023-02-10T12:12:58;101691.19;;;2.48;65.95
17607;BME280;8922;52.240;20.980;2023-02-10T12:15:41;101696.13;;;2.45;65.72
17607;BME280;8922;52.240;20.980;2023-02-10T12:18:29;101705.44;;;2.44;66.36
17607;BME280;8922;52.240;20.980;2023-02-10T12:21:32;101688.34;;;2.41;66.89
17607;BME280;8922;52.240;20.980;2023-02-10T12:24:25;101684.13;;;2.42;66.89
17607;BME280;8922;52.240;20.980;2023-02-10T12:27:03;101693.59;;;2.45;66.63
17607;BME280;8922;52.240;20.980;2023-02-10T12:29:46;101686.03;;;2.46;66.77
17607;BME280;8922;52.240;20.980;2023-02-10T12:32:26;101681.03;;;2.48;67.19
17607;BME280;8922;52.240;20.980;2023-02-10T12:35:16;101683.56;;;2.48;66.97
17607;BME280;8922;52.240;20.980;2023-02-10T12:37:55;101682.75;;;2.49;66.82
17607;BME280;8922;52.240;20.980;2023-02-10T12:40:41;101686.16;;;2.49;67.09
17607;BME280;8922;52.240;20.980;2023-02-10T12:46:36;101665.75;;;2.48;66.70
17607;BME280;8922;52.240;20.980;2023-02-10T12:49:19;101670.75;;;2.46;67.28
17607;BME280;8922;52.240;20.980;2023-02-10T12:52:02;101669.97;;;2.47;67.03
17607;BME280;8922;52.240;20.980;2023-02-10T12:54:41;101666.53;;;2.47;67.18
17607;BME280;8922;52.240;20.980;2023-02-10T12:57:17;101674.25;;;2.48;67.40
17607;BME280;8922;52.240;20.980;2023-02-10T12:59:53;101669.88;;;2.46;67.02
17607;BME280;8922;52.240;20.980;2023-02-10T13:02:31;101668.97;;;2.44;67.97
17607;BME280;8922;52.240;20.980;2023-02-10T13:05:07;101687.53;;;2.42;67.95
17607;BME280;8922;52.240;20.980;2023-02-10T13:07:44;101705.34;;;2.42;67.90
17607;BME280;8922;52.240;20.980;2023-02-10T13:10:26;101709.56;;;2.42;68.17
17607;BME280;8922;52.240;20.980;2023-02-10T13:13:01;101712.97;;;2.42;67.89
17607;BME280;8922;52.240;20.980;2023-02-10T13:15:35;101702.81;;;2.42;67.57
17607;BME280;8922;52.240;20.980;2023-02-10T13:18:17;101699.38;;;2.42;67.93
17607;BME280;8922;52.240;20.980;2023-02-10T13:20:56;101697.59;;;2.39;68.47
17607;BME280;8922;52.240;20.980;2023-02-10T13:23:37;101703.47;;;2.38;68.19
17607;BME280;8922;52.240;20.980;2023-02-10T13:26:26;101704.13;;;2.34;68.11
17607;BME280;8922;52.240;20.980;2023-02-10T13:29:07;101710.16;;;2.36;68.91
17607;BME280;8922;52.240;20.980;2023-02-10T13:31:52;101701.66;;;2.36;68.66
17607;BME280;8922;52.240;20.980;2023-02-10T13:34:29;101697.19;;;2.32;68.92